sensor_id;sensor_type;location;lat;lon;timestamp;temperature;humidity
67364;HTU21D;54250;45.572;38.086;2022-10-16T00:01:16;8.24;68.09
67364;HTU21D;54250;45.572;38.086;2022-10-16T00:03:43;8.22;68.23
67364;HTU21D;54250;45.572;38.086;2022-10-16T00:06:10;8.21;68.15
67364;HTU21D;54250;45.572;38.086;2022-10-16T00:08:37;8.14;68.26
67364;HTU21D;54250;45.572;38.086;2022-10-16T00:11:11;8.12;68.30
67364;HTU21D;54250;45.572;38.086;2022-10-16T00:13:40;8.08;68.31
67364;HTU21D;54250;45.572;38.086;2022-10-16T00:16:08;8.07;68.55
67364;HTU21D;54250;45.572;38.086;2022-10-16T00:18:34;8.03;68.45
67364;HTU21D;54250;45.572;38.086;2022-10-16T00:21:07;8.01;69.07
67364;HTU21D;54250;45.572;38.086;2022-10-16T00:23:34;8.06;68.94
67364;HTU21D;54250;45.572;38.086;2022-10-16T00:26:03;8.03;68.97
67364;HTU21D;54250;45.572;38.086;2022-10-16T00:28:30;8.01;69.02
67364;HTU21D;54250;45.572;38.086;2022-10-16T00:30:56;8.01;69.39
67364;HTU21D;54250;45.572;38.086;2022-10-16T00:33:23;7.99;69.26
67364;HTU21D;54250;45.572;38.086;2022-10-16T00:35:49;7.97;69.30
67364;HTU21D;54250;45.572;38.086;2022-10-16T00:38:16;8.01;70.02
67364;HTU21D;54250;45.572;38.086;2022-10-16T00:40:43;8.02;69.82
67364;HTU21D;54250;45.572;38.086;2022-10-16T00:46:00;7.96;70.19
67364;HTU21D;54250;45.572;38.086;2022-10-16T00:48:27;7.91;70.31
67364;HTU21D;54250;45.572;38.086;2022-10-16T00:50:53;7.89;70.59
67364;HTU21D;54250;45.572;38.086;2022-10-16T00:53:20;7.89;70.47
67364;HTU21D;54250;45.572;38.086;2022-10-16T00:55:47;7.79;70.48
67364;HTU21D;54250;45.572;38.086;2022-10-16T00:58:13;7.76;70.94
67364;HTU21D;54250;45.572;38.086;2022-10-16T01:00:39;7.75;70.82
67364;HTU21D;54250;45.572;38.086;2022-10-16T01:03:26;7.71;70.71
67364;HTU21D;54250;45.572;38.086;2022-10-16T01:06:26;7.68;70.75
67364;HTU21D;54250;45.572;38.086;2022-10-16T01:17:19;7.54;71.10
67364;HTU21D;54250;45.572;38.086;2022-10-16T01:20:10;7.55;70.97
67364;HTU21D;54250;45.572;38.086;2022-10-16T01:22:51;7.55;71.14
67364;HTU21D;54250;45.572;38.086;2022-10-16T01:28:13;7.46;71.42
67364;HTU21D;54250;45.572;38.086;2022-10-16T01:30:42;7.49;71.56
67364;HTU21D;54250;45.572;38.086;2022-10-16T01:33:17;7.48;71.38
67364;HTU21D;54250;45.572;38.086;2022-10-16T01:35:49;7.48;71.41
67364;HTU21D;54250;45.572;38.086;2022-10-16T01:38:44;7.50;71.34
67364;HTU21D;54250;45.572;38.086;2022-10-16T01:41:34;7.55;71.32
67364;HTU21D;54250;45.572;38.086;2022-10-16T01:46:34;7.65;71.64
67364;HTU21D;54250;45.572;38.086;2022-10-16T01:49:02;7.76;71.48
67364;HTU21D;54250;45.572;38.086;2022-10-16T01:51:29;7.79;71.44
67364;HTU21D;54250;45.572;38.086;2022-10-16T01:53:57;7.79;71.64
67364;HTU21D;54250;45.572;38.086;2022-10-16T01:56:25;7.85;71.87
67364;HTU21D;54250;45.572;38.086;2022-10-16T01:59:12;7.81;71.67
67364;HTU21D;54250;45.572;38.086;2022-10-16T02:01:42;7.78;72.18
67364;HTU21D;54250;45.572;38.086;2022-10-16T02:06:42;7.73;71.80
67364;HTU21D;54250;45.572;38.086;2022-10-16T02:09:09;7.75;72.13
67364;HTU21D;54250;45.572;38.086;2022-10-16T02:11:35;7.84;72.22
67364;HTU21D;54250;45.572;38.086;2022-10-16T02:14:05;7.90;72.15
67364;HTU21D;54250;45.572;38.086;2022-10-16T02:16:38;7.91;72.06
67364;HTU21D;54250;45.572;38.086;2022-10-16T02:19:06;7.87;72.07
67364;HTU21D;54250;45.572;38.086;2022-10-16T02:21:47;7.89;72.11
67364;HTU21D;54250;45.572;38.086;2022-10-16T02:26:48;7.88;72.18
67364;HTU21D;54250;45.572;38.086;2022-10-16T02:29:19;7.89;72.52
67364;HTU21D;54250;45.572;38.086;2022-10-16T02:31:50;7.90;72.43
67364;HTU21D;54250;45.572;38.086;2022-10-16T02:34:20;7.86;72.37
67364;HTU21D;54250;45.572;38.086;2022-10-16T02:36:47;7.87;72.35
67364;HTU21D;54250;45.572;38.086;2022-10-16T02:39:14;7.87;72.47
67364;HTU21D;54250;45.572;38.086;2022-10-16T02:41:41;7.88;72.58
67364;HTU21D;54250;45.572;38.086;2022-10-16T02:44:08;7.91;72.46
67364;HTU21D;54250;45.572;38.086;2022-10-16T02:46:34;7.86;72.40
67364;HTU21D;54250;45.572;38.086;2022-10-16T02:49:00;7.83;72.34
67364;HTU21D;54250;45.572;38.086;2022-10-16T02:51:26;7.79;72.58
67364;HTU21D;54250;45.572;38.086;2022-10-16T02:53:52;7.85;72.69
67364;HTU21D;54250;45.572;38.086;2022-10-16T02:56:18;7.88;72.51
67364;HTU21D;54250;45.572;38.086;2022-10-16T02:58:44;7.88;72.62
67364;HTU21D;54250;45.572;38.086;2022-10-16T03:01:10;7.84;72.52
67364;HTU21D;54250;45.572;38.086;2022-10-16T03:03:38;7.78;72.85
67364;HTU21D;54250;45.572;38.086;2022-10-16T03:06:04;7.79;72.78
67364;HTU21D;54250;45.572;38.086;2022-10-16T03:08:31;7.83;72.87
67364;HTU21D;54250;45.572;38.086;2022-10-16T03:10:57;7.86;73.01
67364;HTU21D;54250;45.572;38.086;2022-10-16T03:13:23;7.85;73.12
67364;HTU21D;54250;45.572;38.086;2022-10-16T03:15:49;7.78;72.90
67364;HTU21D;54250;45.572;38.086;2022-10-16T03:18:16;7.72;73.08
67364;HTU21D;54250;45.572;38.086;2022-10-16T03:20:45;7.71;73.15
67364;HTU21D;54250;45.572;38.086;2022-10-16T03:23:11;7.74;73.64
67364;HTU21D;54250;45.572;38.086;2022-10-16T03:25:37;7.74;73.48
67364;HTU21D;54250;45.572;38.086;2022-10-16T03:28:03;7.76;73.64
67364;HTU21D;54250;45.572;38.086;2022-10-16T03:30:29;7.78;73.58
67364;HTU21D;54250;45.572;38.086;2022-10-16T03:32:55;7.76;73.70
67364;HTU21D;54250;45.572;38.086;2022-10-16T03:35:22;7.78;73.90
67364;HTU21D;54250;45.572;38.086;2022-10-16T03:37:49;7.79;73.64
67364;HTU21D;54250;45.572;38.086;2022-10-16T03:40:16;7.82;74.11
67364;HTU21D;54250;45.572;38.086;2022-10-16T03:42:42;7.84;73.97
67364;HTU21D;54250;45.572;38.086;2022-10-16T03:45:10;7.83;74.02
67364;HTU21D;54250;45.572;38.086;2022-10-16T03:47:36;7.83;74.09
67364;HTU21D;54250;45.572;38.086;2022-10-16T03:50:03;7.85;74.53
67364;HTU21D;54250;45.572;38.086;2022-10-16T03:52:29;7.84;74.56
67364;HTU21D;54250;45.572;38.086;2022-10-16T03:54:55;7.83;74.54
67364;HTU21D;54250;45.572;38.086;2022-10-16T03:57:21;7.83;74.73
67364;HTU21D;54250;45.572;38.086;2022-10-16T03:59:48;7.85;74.53
67364;HTU21D;54250;45.572;38.086;2022-10-16T04:02:14;7.91;74.70
67364;HTU21D;54250;45.572;38.086;2022-10-16T04:04:40;8.02;74.73
67364;HTU21D;54250;45.572;38.086;2022-10-16T04:07:06;8.21;74.21
67364;HTU21D;54250;45.572;38.086;2022-10-16T04:09:32;8.49;73.91
67364;HTU21D;54250;45.572;38.086;2022-10-16T04:11:58;8.73;73.43
67364;HTU21D;54250;45.572;38.086;2022-10-16T04:14:25;8.83;73.40
67364;HTU21D;54250;45.572;38.086;2022-10-16T04:16:50;8.96;73.44
67364;HTU21D;54250;45.572;38.086;2022-10-16T04:19:16;9.05;73.52
67364;HTU21D;54250;45.572;38.086;2022-10-16T04:21:43;9.15;73.32
67364;HTU21D;54250;45.572;38.086;2022-10-16T04:24:09;9.22;73.31
67364;HTU21D;54250;45.572;38.086;2022-10-16T04:26:37;9.35;73.29
67364;HTU21D;54250;45.572;38.086;2022-10-16T04:29:04;9.61;73.14
67364;HTU21D;54250;45.572;38.086;2022-10-16T04:31:31;10.11;72.33
67364;HTU21D;54250;45.572;38.086;2022-10-16T04:33:57;11.02;70.50
67364;HTU21D;54250;45.572;38.086;2022-10-16T04:36:24;11.87;68.65
67364;HTU21D;54250;45.572;38.086;2022-10-16T04:38:50;12.13;68.26
67364;HTU21D;54250;45.572;38.086;2022-10-16T04:41:16;12.46;68.05
67364;HTU21D;54250;45.572;38.086;2022-10-16T04:43:42;13.16;66.98
67364;HTU21D;54250;45.572;38.086;2022-10-16T04:46:08;13.77;65.70
67364;HTU21D;54250;45.572;38.086;2022-10-16T04:48:35;13.56;65.91
67364;HTU21D;54250;45.572;38.086;2022-10-16T04:51:01;13.31;66.98
67364;HTU21D;54250;45.572;38.086;2022-10-16T04:53:27;13.46;67.02
67364;HTU21D;54250;45.572;38.086;2022-10-16T04:55:54;13.68;66.38
67364;HTU21D;54250;45.572;38.086;2022-10-16T04:58:20;14.12;65.59
67364;HTU21D;54250;45.572;38.086;2022-10-16T05:00:46;14.83;64.14
67364;HTU21D;54250;45.572;38.086;2022-10-16T05:03:13;15.63;62.58
67364;HTU21D;54250;45.572;38.086;2022-10-16T05:05:43;16.20;61.63
67364;HTU21D;54250;45.572;38.086;2022-10-16T05:08:11;16.58;60.93
67364;HTU21D;54250;45.572;38.086;2022-10-16T05:10:37;17.56;59.86
67364;HTU21D;54250;45.572;38.086;2022-10-16T05:13:03;18.29;58.13
67364;HTU21D;54250;45.572;38.086;2022-10-16T05:15:29;19.14;57.45
67364;HTU21D;54250;45.572;38.086;2022-10-16T05:17:56;19.50;55.88
67364;HTU21D;54250;45.572;38.086;2022-10-16T05:20:22;19.18;56.36
67364;HTU21D;54250;45.572;38.086;2022-10-16T05:22:48;19.80;55.99
67364;HTU21D;54250;45.572;38.086;2022-10-16T05:25:15;20.62;54.45
67364;HTU21D;54250;45.572;38.086;2022-10-16T05:27:41;20.45;54.07
67364;HTU21D;54250;45.572;38.086;2022-10-16T05:30:08;20.60;54.61
67364;HTU21D;54250;45.572;38.086;2022-10-16T05:32:34;20.74;53.72
67364;HTU21D;54250;45.572;38.086;2022-10-16T05:35:00;20.47;53.11
67364;HTU21D;54250;45.572;38.086;2022-10-16T05:37:29;20.27;53.14
67364;HTU21D;54250;45.572;38.086;2022-10-16T05:39:55;20.56;53.09
67364;HTU21D;54250;45.572;38.086;2022-10-16T05:42:21;21.13;52.30
67364;HTU21D;54250;45.572;38.086;2022-10-16T05:44:47;20.91;51.74
67364;HTU21D;54250;45.572;38.086;2022-10-16T05:47:13;20.77;52.41
67364;HTU21D;54250;45.572;38.086;2022-10-16T05:49:40;21.62;51.42
67364;HTU21D;54250;45.572;38.086;2022-10-16T05:52:06;22.32;49.92
67364;HTU21D;54250;45.572;38.086;2022-10-16T05:54:32;22.60;48.95
67364;HTU21D;54250;45.572;38.086;2022-10-16T05:56:58;22.82;48.45
67364;HTU21D;54250;45.572;38.086;2022-10-16T05:59:24;22.71;47.99
67364;HTU21D;54250;45.572;38.086;2022-10-16T06:01:50;22.36;48.00
67364;HTU21D;54250;45.572;38.086;2022-10-16T06:04:16;22.26;48.09
67364;HTU21D;54250;45.572;38.086;2022-10-16T06:06:43;22.32;47.98
67364;HTU21D;54250;45.572;38.086;2022-10-16T06:09:09;22.47;47.22
67364;HTU21D;54250;45.572;38.086;2022-10-16T06:11:36;22.46;47.70
67364;HTU21D;54250;45.572;38.086;2022-10-16T06:14:02;22.81;46.54
67364;HTU21D;54250;45.572;38.086;2022-10-16T06:16:36;23.12;46.76
67364;HTU21D;54250;45.572;38.086;2022-10-16T06:19:03;23.51;46.00
67364;HTU21D;54250;45.572;38.086;2022-10-16T06:21:32;23.62;46.40
67364;HTU21D;54250;45.572;38.086;2022-10-16T06:23:58;23.92;44.99
67364;HTU21D;54250;45.572;38.086;2022-10-16T06:26:29;23.67;45.35
67364;HTU21D;54250;45.572;38.086;2022-10-16T06:28:56;23.55;45.92
67364;HTU21D;54250;45.572;38.086;2022-10-16T06:31:23;23.71;45.57
67364;HTU21D;54250;45.572;38.086;2022-10-16T06:33:53;22.97;46.21
67364;HTU21D;54250;45.572;38.086;2022-10-16T06:36:20;22.34;47.31
67364;HTU21D;54250;45.572;38.086;2022-10-16T06:38:46;22.64;46.97
67364;HTU21D;54250;45.572;38.086;2022-10-16T06:41:15;22.27;47.54
67364;HTU21D;54250;45.572;38.086;2022-10-16T06:43:42;22.62;47.02
67364;HTU21D;54250;45.572;38.086;2022-10-16T06:46:10;22.99;46.74
67364;HTU21D;54250;45.572;38.086;2022-10-16T06:48:37;23.56;46.19
67364;HTU21D;54250;45.572;38.086;2022-10-16T06:51:11;23.06;46.44
67364;HTU21D;54250;45.572;38.086;2022-10-16T06:53:40;21.72;48.28
67364;HTU21D;54250;45.572;38.086;2022-10-16T06:56:15;20.56;50.51
67364;HTU21D;54250;45.572;38.086;2022-10-16T06:58:42;19.90;51.79
67364;HTU21D;54250;45.572;38.086;2022-10-16T07:01:09;19.00;53.37
67364;HTU21D;54250;45.572;38.086;2022-10-16T07:03:37;18.65;54.36
67364;HTU21D;54250;45.572;38.086;2022-10-16T07:06:05;19.12;53.68
67364;HTU21D;54250;45.572;38.086;2022-10-16T07:08:36;19.98;52.36
67364;HTU21D;54250;45.572;38.086;2022-10-16T07:11:09;20.49;51.44
67364;HTU21D;54250;45.572;38.086;2022-10-16T07:13:36;21.01;50.53
67364;HTU21D;54250;45.572;38.086;2022-10-16T07:16:24;20.69;50.96
67364;HTU21D;54250;45.572;38.086;2022-10-16T07:18:51;19.80;52.76
67364;HTU21D;54250;45.572;38.086;2022-10-16T07:21:19;19.56;53.55
67364;HTU21D;54250;45.572;38.086;2022-10-16T07:23:50;19.47;53.86
67364;HTU21D;54250;45.572;38.086;2022-10-16T07:26:16;19.32;54.21
67364;HTU21D;54250;45.572;38.086;2022-10-16T07:28:43;19.82;53.67
67364;HTU21D;54250;45.572;38.086;2022-10-16T07:31:16;20.11;53.12
67364;HTU21D;54250;45.572;38.086;2022-10-16T07:33:44;20.33;52.94
67364;HTU21D;54250;45.572;38.086;2022-10-16T07:36:11;20.54;52.29
67364;HTU21D;54250;45.572;38.086;2022-10-16T07:38:38;19.99;53.41
67364;HTU21D;54250;45.572;38.086;2022-10-16T07:41:06;19.74;54.12
67364;HTU21D;54250;45.572;38.086;2022-10-16T07:43:33;19.44;54.79
67364;HTU21D;54250;45.572;38.086;2022-10-16T07:45:59;19.02;55.52
67364;HTU21D;54250;45.572;38.086;2022-10-16T07:48:30;18.63;56.41
67364;HTU21D;54250;45.572;38.086;2022-10-16T07:50:58;18.42;57.22
67364;HTU21D;54250;45.572;38.086;2022-10-16T07:53:25;18.22;57.80
67364;HTU21D;54250;45.572;38.086;2022-10-16T07:55:51;18.05;58.51
67364;HTU21D;54250;45.572;38.086;2022-10-16T07:58:18;18.12;58.48
67364;HTU21D;54250;45.572;38.086;2022-10-16T08:00:44;18.10;58.52
67364;HTU21D;54250;45.572;38.086;2022-10-16T08:03:10;17.97;58.81
67364;HTU21D;54250;45.572;38.086;2022-10-16T08:05:36;17.80;59.32
67364;HTU21D;54250;45.572;38.086;2022-10-16T08:08:02;17.97;59.37
67364;HTU21D;54250;45.572;38.086;2022-10-16T08:10:29;18.25;58.98
67364;HTU21D;54250;45.572;38.086;2022-10-16T08:12:55;18.64;58.33
67364;HTU21D;54250;45.572;38.086;2022-10-16T08:15:21;18.99;57.70
67364;HTU21D;54250;45.572;38.086;2022-10-16T08:17:59;19.39;57.16
67364;HTU21D;54250;45.572;38.086;2022-10-16T08:20:26;19.73;56.66
67364;HTU21D;54250;45.572;38.086;2022-10-16T08:22:52;20.10;55.79
67364;HTU21D;54250;45.572;38.086;2022-10-16T08:25:20;20.25;55.84
67364;HTU21D;54250;45.572;38.086;2022-10-16T08:27:47;20.26;55.71
67364;HTU21D;54250;45.572;38.086;2022-10-16T08:30:13;20.13;56.31
67364;HTU21D;54250;45.572;38.086;2022-10-16T08:32:40;20.25;56.10
67364;HTU21D;54250;45.572;38.086;2022-10-16T08:35:10;20.49;55.43
67364;HTU21D;54250;45.572;38.086;2022-10-16T08:37:37;20.41;55.38
67364;HTU21D;54250;45.572;38.086;2022-10-16T08:40:06;20.13;56.23
67364;HTU21D;54250;45.572;38.086;2022-10-16T08:45:34;21.35;53.92
67364;HTU21D;54250;45.572;38.086;2022-10-16T08:50:52;22.91;51.72
67364;HTU21D;54250;45.572;38.086;2022-10-16T08:53:27;23.42;50.31
67364;HTU21D;54250;45.572;38.086;2022-10-16T08:55:55;22.73;51.33
67364;HTU21D;54250;45.572;38.086;2022-10-16T08:58:23;23.11;50.87
67364;HTU21D;54250;45.572;38.086;2022-10-16T09:01:01;24.06;49.79
67364;HTU21D;54250;45.572;38.086;2022-10-16T09:06:46;25.10;47.42
67364;HTU21D;54250;45.572;38.086;2022-10-16T09:20:13;23.87;48.65
67364;HTU21D;54250;45.572;38.086;2022-10-16T09:22:42;22.62;50.26
67364;HTU21D;54250;45.572;38.086;2022-10-16T09:25:17;21.22;52.73
67364;HTU21D;54250;45.572;38.086;2022-10-16T09:27:46;20.47;54.20
67364;HTU21D;54250;45.572;38.086;2022-10-16T09:30:18;20.00;55.07
67364;HTU21D;54250;45.572;38.086;2022-10-16T09:32:48;19.80;55.49
67364;HTU21D;54250;45.572;38.086;2022-10-16T09:35:19;19.71;55.87
67364;HTU21D;54250;45.572;38.086;2022-10-16T09:37:49;19.94;55.58
67364;HTU21D;54250;45.572;38.086;2022-10-16T09:40:26;19.98;55.59
67364;HTU21D;54250;45.572;38.086;2022-10-16T09:43:20;20.11;55.62
67364;HTU21D;54250;45.572;38.086;2022-10-16T09:48:57;20.90;54.21
67364;HTU21D;54250;45.572;38.086;2022-10-16T09:51:30;20.55;54.81
67364;HTU21D;54250;45.572;38.086;2022-10-16T09:54:20;20.05;55.71
67364;HTU21D;54250;45.572;38.086;2022-10-16T09:56:45;19.69;56.42
67364;HTU21D;54250;45.572;38.086;2022-10-16T09:59:17;19.48;56.83
67364;HTU21D;54250;45.572;38.086;2022-10-16T10:01:53;19.28;57.27
67364;HTU21D;54250;45.572;38.086;2022-10-16T10:04:23;19.07;57.79
67364;HTU21D;54250;45.572;38.086;2022-10-16T10:06:57;18.98;57.92
67364;HTU21D;54250;45.572;38.086;2022-10-16T10:09:28;18.98;57.93
67364;HTU21D;54250;45.572;38.086;2022-10-16T10:12:01;18.89;58.02
67364;HTU21D;54250;45.572;38.086;2022-10-16T10:14:36;18.70;58.48
67364;HTU21D;54250;45.572;38.086;2022-10-16T10:19:58;18.58;58.85
67364;HTU21D;54250;45.572;38.086;2022-10-16T10:30:18;18.70;59.06
67364;HTU21D;54250;45.572;38.086;2022-10-16T10:35:22;18.74;59.13
67364;HTU21D;54250;45.572;38.086;2022-10-16T10:38:02;18.72;59.26
67364;HTU21D;54250;45.572;38.086;2022-10-16T10:40:46;18.73;59.31
67364;HTU21D;54250;45.572;38.086;2022-10-16T10:43:34;18.74;59.28
67364;HTU21D;54250;45.572;38.086;2022-10-16T10:46:13;18.79;59.17
67364;HTU21D;54250;45.572;38.086;2022-10-16T10:51:45;19.12;58.69
67364;HTU21D;54250;45.572;38.086;2022-10-16T10:57:02;19.00;58.80
67364;HTU21D;54250;45.572;38.086;2022-10-16T11:02:47;19.32;58.48
67364;HTU21D;54250;45.572;38.086;2022-10-16T11:05:02;19.45;58.33
67364;HTU21D;54250;45.572;38.086;2022-10-16T11:07:36;19.47;58.30
67364;HTU21D;54250;45.572;38.086;2022-10-16T11:10:21;19.45;58.41
67364;HTU21D;54250;45.572;38.086;2022-10-16T11:12:52;19.39;58.55
67364;HTU21D;54250;45.572;38.086;2022-10-16T11:17:55;19.27;58.93
67364;HTU21D;54250;45.572;38.086;2022-10-16T11:20:26;19.22;59.05
67364;HTU21D;54250;45.572;38.086;2022-10-16T11:23:06;19.16;59.16
67364;HTU21D;54250;45.572;38.086;2022-10-16T11:25:33;19.10;59.27
67364;HTU21D;54250;45.572;38.086;2022-10-16T11:30:39;19.00;59.37
67364;HTU21D;54250;45.572;38.086;2022-10-16T11:46:38;18.93;59.32
67364;HTU21D;54250;45.572;38.086;2022-10-16T11:49:36;18.88;59.43
67364;HTU21D;54250;45.572;38.086;2022-10-16T11:54:38;18.87;59.53
67364;HTU21D;54250;45.572;38.086;2022-10-16T11:57:19;18.96;59.26
67364;HTU21D;54250;45.572;38.086;2022-10-16T11:59:56;18.95;59.22
67364;HTU21D;54250;45.572;38.086;2022-10-16T12:02:49;18.84;59.30
67364;HTU21D;54250;45.572;38.086;2022-10-16T12:08:08;18.52;59.80
67364;HTU21D;54250;45.572;38.086;2022-10-16T12:10:35;18.42;59.94
67364;HTU21D;54250;45.572;38.086;2022-10-16T12:13:26;18.39;59.96
67364;HTU21D;54250;45.572;38.086;2022-10-16T12:15:51;18.36;59.89
67364;HTU21D;54250;45.572;38.086;2022-10-16T12:18:24;18.32;59.86
67364;HTU21D;54250;45.572;38.086;2022-10-16T12:20:57;18.26;59.92
67364;HTU21D;54250;45.572;38.086;2022-10-16T12:23:31;18.22;60.02
67364;HTU21D;54250;45.572;38.086;2022-10-16T12:25:59;18.20;60.22
67364;HTU21D;54250;45.572;38.086;2022-10-16T12:28:31;18.14;60.33
67364;HTU21D;54250;45.572;38.086;2022-10-16T12:30:59;18.10;60.36
67364;HTU21D;54250;45.572;38.086;2022-10-16T12:33:29;18.05;60.35
67364;HTU21D;54250;45.572;38.086;2022-10-16T12:35:57;18.05;60.37
67364;HTU21D;54250;45.572;38.086;2022-10-16T12:41:07;17.99;60.34
67364;HTU21D;54250;45.572;38.086;2022-10-16T12:48:35;17.80;60.35
67364;HTU21D;54250;45.572;38.086;2022-10-16T12:51:22;17.77;60.35
67364;HTU21D;54250;45.572;38.086;2022-10-16T12:54:04;17.72;60.42
67364;HTU21D;54250;45.572;38.086;2022-10-16T12:59:35;17.62;60.48
67364;HTU21D;54250;45.572;38.086;2022-10-16T13:27:35;17.03;60.85
67364;HTU21D;54250;45.572;38.086;2022-10-16T13:30:14;17.00;60.87
67364;HTU21D;54250;45.572;38.086;2022-10-16T13:32:45;16.96;60.94
67364;HTU21D;54250;45.572;38.086;2022-10-16T13:35:22;16.92;60.96
67364;HTU21D;54250;45.572;38.086;2022-10-16T13:37:48;16.92;60.94
67364;HTU21D;54250;45.572;38.086;2022-10-16T13:40:22;16.91;60.88
67364;HTU21D;54250;45.572;38.086;2022-10-16T13:42:50;16.90;60.87
67364;HTU21D;54250;45.572;38.086;2022-10-16T13:45:22;16.85;60.93
67364;HTU21D;54250;45.572;38.086;2022-10-16T13:47:49;16.77;61.05
67364;HTU21D;54250;45.572;38.086;2022-10-16T13:50:17;16.74;61.05
67364;HTU21D;54250;45.572;38.086;2022-10-16T13:52:44;16.69;61.11
67364;HTU21D;54250;45.572;38.086;2022-10-16T13:55:11;16.62;61.17
67364;HTU21D;54250;45.572;38.086;2022-10-16T13:57:38;16.59;61.23
67364;HTU21D;54250;45.572;38.086;2022-10-16T14:00:18;16.56;61.23
67364;HTU21D;54250;45.572;38.086;2022-10-16T14:02:45;16.56;61.23
67364;HTU21D;54250;45.572;38.086;2022-10-16T14:05:14;16.54;61.21
67364;HTU21D;54250;45.572;38.086;2022-10-16T14:07:40;16.54;61.26
67364;HTU21D;54250;45.572;38.086;2022-10-16T14:10:29;16.59;61.20
67364;HTU21D;54250;45.572;38.086;2022-10-16T14:13:01;16.59;61.19
67364;HTU21D;54250;45.572;38.086;2022-10-16T14:15:29;16.58;61.20
67364;HTU21D;54250;45.572;38.086;2022-10-16T14:17:56;16.54;61.32
67364;HTU21D;54250;45.572;38.086;2022-10-16T14:20:28;16.52;61.34
67364;HTU21D;54250;45.572;38.086;2022-10-16T14:23:00;16.51;61.38
67364;HTU21D;54250;45.572;38.086;2022-10-16T14:25:29;16.50;61.35
67364;HTU21D;54250;45.572;38.086;2022-10-16T14:30:34;16.43;61.53
67364;HTU21D;54250;45.572;38.086;2022-10-16T14:33:06;16.42;61.50
67364;HTU21D;54250;45.572;38.086;2022-10-16T14:35:37;16.40;61.55
67364;HTU21D;54250;45.572;38.086;2022-10-16T14:38:06;16.41;61.67
67364;HTU21D;54250;45.572;38.086;2022-10-16T14:40:35;16.40;61.73
67364;HTU21D;54250;45.572;38.086;2022-10-16T14:43:02;16.36;61.70
67364;HTU21D;54250;45.572;38.086;2022-10-16T14:45:31;16.33;61.87
67364;HTU21D;54250;45.572;38.086;2022-10-16T14:48:17;16.32;62.00
67364;HTU21D;54250;45.572;38.086;2022-10-16T14:50:44;16.31;62.17
67364;HTU21D;54250;45.572;38.086;2022-10-16T14:53:14;16.30;62.21
67364;HTU21D;54250;45.572;38.086;2022-10-16T14:55:41;16.27;62.36
67364;HTU21D;54250;45.572;38.086;2022-10-16T14:58:15;16.24;62.50
67364;HTU21D;54250;45.572;38.086;2022-10-16T15:00:42;16.22;62.72
67364;HTU21D;54250;45.572;38.086;2022-10-16T15:03:08;16.25;62.73
67364;HTU21D;54250;45.572;38.086;2022-10-16T15:05:34;16.22;62.86
67364;HTU21D;54250;45.572;38.086;2022-10-16T15:08:00;16.26;62.87
67364;HTU21D;54250;45.572;38.086;2022-10-16T15:10:27;16.25;62.91
67364;HTU21D;54250;45.572;38.086;2022-10-16T15:12:54;16.24;63.02
67364;HTU21D;54250;45.572;38.086;2022-10-16T15:17:50;16.18;63.08
67364;HTU21D;54250;45.572;38.086;2022-10-16T15:20:19;16.17;63.11
67364;HTU21D;54250;45.572;38.086;2022-10-16T15:22:45;16.14;63.23
67364;HTU21D;54250;45.572;38.086;2022-10-16T15:25:36;16.06;63.23
67364;HTU21D;54250;45.572;38.086;2022-10-16T15:28:04;16.05;63.36
67364;HTU21D;54250;45.572;38.086;2022-10-16T15:30:30;16.02;63.45
67364;HTU21D;54250;45.572;38.086;2022-10-16T15:32:57;15.99;63.50
67364;HTU21D;54250;45.572;38.086;2022-10-16T15:35:23;15.96;63.52
67364;HTU21D;54250;45.572;38.086;2022-10-16T15:37:49;15.92;63.58
67364;HTU21D;54250;45.572;38.086;2022-10-16T15:40:17;15.89;63.61
67364;HTU21D;54250;45.572;38.086;2022-10-16T15:42:43;15.88;63.60
67364;HTU21D;54250;45.572;38.086;2022-10-16T15:45:11;15.84;63.59
67364;HTU21D;54250;45.572;38.086;2022-10-16T15:47:38;15.81;63.63
67364;HTU21D;54250;45.572;38.086;2022-10-16T15:50:06;15.73;63.63
67364;HTU21D;54250;45.572;38.086;2022-10-16T15:52:33;15.70;63.77
67364;HTU21D;54250;45.572;38.086;2022-10-16T15:54:59;15.69;63.77
67364;HTU21D;54250;45.572;38.086;2022-10-16T15:57:28;15.65;63.82
67364;HTU21D;54250;45.572;38.086;2022-10-16T15:59:55;15.59;63.88
67364;HTU21D;54250;45.572;38.086;2022-10-16T16:02:21;15.55;63.99
67364;HTU21D;54250;45.572;38.086;2022-10-16T16:04:47;15.53;64.09
67364;HTU21D;54250;45.572;38.086;2022-10-16T16:07:13;15.49;64.15
67364;HTU21D;54250;45.572;38.086;2022-10-16T16:09:41;15.48;64.21
67364;HTU21D;54250;45.572;38.086;2022-10-16T16:12:07;15.48;64.23
67364;HTU21D;54250;45.572;38.086;2022-10-16T16:14:33;15.51;64.28
67364;HTU21D;54250;45.572;38.086;2022-10-16T16:17:00;15.51;64.41
67364;HTU21D;54250;45.572;38.086;2022-10-16T16:19:27;15.51;64.40
67364;HTU21D;54250;45.572;38.086;2022-10-16T16:21:53;15.52;64.34
67364;HTU21D;54250;45.572;38.086;2022-10-16T16:24:19;15.48;64.36
67364;HTU21D;54250;45.572;38.086;2022-10-16T16:26:46;15.47;64.50
67364;HTU21D;54250;45.572;38.086;2022-10-16T16:29:14;15.45;64.56
67364;HTU21D;54250;45.572;38.086;2022-10-16T16:31:41;15.41;64.58
67364;HTU21D;54250;45.572;38.086;2022-10-16T16:34:08;15.38;64.71
67364;HTU21D;54250;45.572;38.086;2022-10-16T16:36:34;15.33;64.81
67364;HTU21D;54250;45.572;38.086;2022-10-16T16:39:01;15.30;64.77
67364;HTU21D;54250;45.572;38.086;2022-10-16T16:41:29;15.26;64.82
67364;HTU21D;54250;45.572;38.086;2022-10-16T16:44:05;15.25;64.84
67364;HTU21D;54250;45.572;38.086;2022-10-16T16:46:33;15.24;64.95
67364;HTU21D;54250;45.572;38.086;2022-10-16T16:49:00;15.26;65.08
67364;HTU21D;54250;45.572;38.086;2022-10-16T16:51:27;15.23;64.99
67364;HTU21D;54250;45.572;38.086;2022-10-16T16:53:54;15.19;65.11
67364;HTU21D;54250;45.572;38.086;2022-10-16T16:56:21;15.17;65.20
67364;HTU21D;54250;45.572;38.086;2022-10-16T16:58:49;15.16;65.36
67364;HTU21D;54250;45.572;38.086;2022-10-16T17:01:16;15.15;65.48
67364;HTU21D;54250;45.572;38.086;2022-10-16T17:03:44;15.14;65.62
67364;HTU21D;54250;45.572;38.086;2022-10-16T17:06:11;15.11;65.66
67364;HTU21D;54250;45.572;38.086;2022-10-16T17:08:37;15.06;65.66
67364;HTU21D;54250;45.572;38.086;2022-10-16T17:11:04;15.03;65.78
67364;HTU21D;54250;45.572;38.086;2022-10-16T17:13:33;15.02;65.69
67364;HTU21D;54250;45.572;38.086;2022-10-16T17:16:05;15.00;65.75
67364;HTU21D;54250;45.572;38.086;2022-10-16T17:18:32;15.02;65.67
67364;HTU21D;54250;45.572;38.086;2022-10-16T17:21:01;15.03;65.79
67364;HTU21D;54250;45.572;38.086;2022-10-16T17:23:28;15.04;65.78
67364;HTU21D;54250;45.572;38.086;2022-10-16T17:25:55;15.03;65.79
67364;HTU21D;54250;45.572;38.086;2022-10-16T17:28:21;15.04;65.85
67364;HTU21D;54250;45.572;38.086;2022-10-16T17:30:47;15.08;66.11